Time;durP1;ratioP1;P1;durP2;ratioP2;P2;SDS_P1;SDS_P2;PMS_P1;PMS_P2;Temp;Humidity;BMP_temperature;BMP_pressure;BME280_temperature;BME280_humidity;BME280_pressure;Samples;Min_cycle;Max_cycle;Signal;HPM_P1;HPM_P2
2022/03/07 00:01:50;;;;;;;;;;;;;;;2.50;84.40;99663.28;5061589;28;19931;-54
2022/03/07 00:04:17;;;;;;;;;;;;;;;2.50;85.47;99664.09;5060523;28;19908;-55
2022/03/07 00:06:42;;;;;;;;;;;;;;;2.34;86.38;99666.59;5059998;28;19951;-53
2022/03/07 00:09:08;;;;;;;;;;;;;;;2.41;85.60;99664.19;5061505;28;19989;-54
2022/03/07 00:11:34;;;;;;;;;;;;;;;2.62;84.17;99661.22;5059212;28;19915;-54
2022/03/07 00:13:59;;;;;;;;;;;;;;;2.64;84.52;99657.47;5042047;28;19912;-54
2022/03/07 00:16:24;;;;;;;;;;;;;;;2.63;85.13;99655.00;5061969;28;20356;-55
2022/03/07 00:18:49;;;;;;;;;;;;;;;3.01;82.37;99645.88;5059764;28;19908;-54
2022/03/07 00:21:15;;;;;;;;;;;;;;;2.46;85.06;99652.25;5060889;28;19917;-55
2022/03/07 00:23:40;;;;;;;;;;;;;;;2.60;84.93;99656.13;5058703;28;20339;-53
2022/03/07 00:26:05;;;;;;;;;;;;;;;2.70;82.71;99653.41;5050805;28;19915;-53
2022/03/07 00:28:31;;;;;;;;;;;;;;;2.87;82.82;99652.50;5032765;28;20350;-43
2022/03/07 00:30:56;;;;;;;;;;;;;;;3.20;80.83;99647.44;5050455;28;19909;-42
2022/03/07 00:33:21;;;;;;;;;;;;;;;3.04;80.84;99648.16;5050295;28;20380;-41
2022/03/07 00:35:47;;;;;;;;;;;;;;;3.29;80.19;99640.38;5050250;28;20004;-41
2022/03/07 00:38:12;;;;;;;;;;;;;;;3.30;79.97;99634.97;5050787;28;20003;-41
2022/03/07 00:40:37;;;;;;;;;;;;;;;3.07;80.51;99637.34;5062409;28;20348;-43
2022/03/07 00:43:06;;;;;;;;;;;;;;;3.04;79.30;99636.81;5074403;28;19912;-42
2022/03/07 00:45:31;;;;;;;;;;;;;;;2.84;79.68;99638.88;5073825;28;19915;-54
2022/03/07 00:47:56;;;;;;;;;;;;;;;3.16;79.18;99637.38;5073812;28;19908;-54
2022/03/07 00:50:21;;;;;;;;;;;;;;;2.94;80.47;99632.50;5071374;28;20360;-54
2022/03/07 00:52:47;;;;;;;;;;;;;;;3.05;80.42;99638.50;5035790;28;19909;-55
2022/03/07 00:55:12;;;;;;;;;;;;;;;3.04;79.59;99632.38;5054179;28;19974;-55
2022/03/07 00:57:37;;;;;;;;;;;;;;;3.40;78.61;99636.66;5054055;28;19999;-55
2022/03/07 01:00:03;;;;;;;;;;;;;;;3.50;78.26;99637.31;5054270;28;20004;-55
2022/03/07 01:02:28;;;;;;;;;;;;;;;2.89;81.39;99642.69;5053988;28;19916;-55
2022/03/07 01:04:55;;;;;;;;;;;;;;;3.09;81.97;99640.63;5053992;28;19912;-55
2022/03/07 01:07:20;;;;;;;;;;;;;;;3.38;80.36;99638.63;5053846;28;20376;-55
2022/03/07 01:09:45;;;;;;;;;;;;;;;3.38;78.71;99634.16;5053746;28;19913;-55
2022/03/07 01:12:11;;;;;;;;;;;;;;;3.50;78.82;99637.31;5053830;28;19908;-56
2022/03/07 01:14:36;;;;;;;;;;;;;;;3.36;78.68;99635.31;5053835;28;19966;-56
2022/03/07 01:17:01;;;;;;;;;;;;;;;3.41;78.81;99639.13;5053887;28;19908;-55
2022/03/07 01:19:27;;;;;;;;;;;;;;;3.41;78.32;99641.75;5053648;28;19908;-56
2022/03/07 01:21:52;;;;;;;;;;;;;;;3.12;78.35;99642.13;5053956;28;19916;-56
2022/03/07 01:24:18;;;;;;;;;;;;;;;2.50;81.64;99644.91;5053257;28;20027;-56
2022/03/07 01:26:43;;;;;;;;;;;;;;;2.76;81.65;99649.31;5053046;28;19909;-54
2022/03/07 01:29:08;;;;;;;;;;;;;;;3.05;79.74;99641.13;5053606;28;19913;-54
2022/03/07 01:31:33;;;;;;;;;;;;;;;3.29;78.54;99643.00;5053705;28;20002;-55
2022/03/07 01:33:59;;;;;;;;;;;;;;;3.36;78.95;99640.59;5053639;28;19916;-54
2022/03/07 01:36:24;;;;;;;;;;;;;;;3.17;77.99;99639.03;5053265;28;19967;-54
2022/03/07 01:38:49;;;;;;;;;;;;;;;3.18;77.55;99638.88;5053275;28;19908;-54
2022/03/07 01:41:14;;;;;;;;;;;;;;;3.05;78.87;99635.84;5053216;28;19912;-55
2022/03/07 01:43:40;;;;;;;;;;;;;;;3.13;78.12;99634.06;5053173;28;19913;-54
2022/03/07 01:46:08;;;;;;;;;;;;;;;2.92;79.73;99631.03;5053161;28;19947;-55
2022/03/07 01:48:34;;;;;;;;;;;;;;;2.57;80.43;99630.19;5053195;28;19978;-55
2022/03/07 01:50:59;;;;;;;;;;;;;;;3.11;79.19;99622.06;5059398;28;20384;-55
2022/03/07 01:53:24;;;;;;;;;;;;;;;2.76;79.53;99630.94;5055139;28;19920;-53
2022/03/07 01:55:50;;;;;;;;;;;;;;;2.69;80.64;99623.66;5073196;28;19912;-53
2022/03/07 01:58:15;;;;;;;;;;;;;;;2.65;79.19;99622.34;5072986;28;20546;-53
2022/03/07 02:00:40;;;;;;;;;;;;;;;3.03;78.82;99622.06;5073089;28;19955;-55
2022/03/07 02:03:06;;;;;;;;;;;;;;;2.64;78.62;99623.31;5072794;28;19908;-55
2022/03/07 02:05:31;;;;;;;;;;;;;;;3.01;78.52;99621.34;5054654;28;19909;-54
2022/03/07 02:07:57;;;;;;;;;;;;;;;2.86;78.45;99618.50;5072804;28;19908;-54
2022/03/07 02:10:23;;;;;;;;;;;;;;;2.76;78.55;99628.28;5072792;28;19909;-53
2022/03/07 02:12:48;;;;;;;;;;;;;;;3.08;78.49;99619.75;5054760;28;19915;-52
2022/03/07 02:15:13;;;;;;;;;;;;;;;2.96;78.00;99624.47;5072826;28;20011;-53
2022/03/07 02:17:42;;;;;;;;;;;;;;;2.78;76.90;99623.72;5072523;28;20244;-53
2022/03/07 02:20:08;;;;;;;;;;;;;;;3.01;76.51;99614.31;5072558;28;20590;-53
2022/03/07 02:22:34;;;;;;;;;;;;;;;3.39;77.60;99621.84;5072570;28;20450;-54
2022/03/07 02:24:59;;;;;;;;;;;;;;;3.58;79.03;99626.00;5072358;28;19909;-54
2022/03/07 02:27:24;;;;;;;;;;;;;;;3.71;79.00;99627.19;5072292;28;19916;-53
2022/03/07 02:29:49;;;;;;;;;;;;;;;4.18;78.27;99628.38;5072301;28;19951;-54
2022/03/07 02:32:15;;;;;;;;;;;;;;;4.01;82.05;99632.00;5072381;28;19984;-54
2022/03/07 02:34:40;;;;;;;;;;;;;;;3.08;83.23;99625.00;5072165;28;19995;-54
2022/03/07 02:37:05;;;;;;;;;;;;;;;2.89;83.23;99626.91;5072335;28;19909;-53
2022/03/07 02:39:30;;;;;;;;;;;;;;;2.67;84.26;99632.69;5071710;28;19912;-53
2022/03/07 02:41:56;;;;;;;;;;;;;;;2.42;85.49;99637.78;5052117;28;20015;-53
2022/03/07 02:44:21;;;;;;;;;;;;;;;2.55;86.37;99629.47;5052439;28;19967;-54
2022/03/07 02:46:47;;;;;;;;;;;;;;;2.52;86.35;99640.31;5052021;28;20410;-53
2022/03/07 02:49:12;;;;;;;;;;;;;;;2.44;87.00;99629.75;5051909;28;19913;-54
2022/03/07 02:51:37;;;;;;;;;;;;;;;2.49;88.21;99632.72;5064931;28;20414;-54
2022/03/07 02:54:03;;;;;;;;;;;;;;;2.54;87.38;99619.97;5072122;28;19916;-54
2022/03/07 02:56:28;;;;;;;;;;;;;;;2.51;87.56;99633.41;5071889;28;19987;-54
2022/03/07 02:58:53;;;;;;;;;;;;;;;2.58;86.39;99628.38;5071869;28;20292;-54
2022/03/07 03:01:18;;;;;;;;;;;;;;;2.42;86.79;99626.44;5071670;28;19995;-54
2022/03/07 03:03:44;;;;;;;;;;;;;;;2.26;88.37;99625.34;5071874;28;19958;-54
2022/03/07 03:06:09;;;;;;;;;;;;;;;2.34;88.09;99633.31;5071729;28;20324;-54
2022/03/07 03:08:35;;;;;;;;;;;;;;;2.33;87.90;99634.28;5071714;28;19999;-54
2022/03/07 03:11:01;;;;;;;;;;;;;;;2.52;87.96;99635.06;5071701;28;20299;-54
2022/03/07 03:13:26;;;;;;;;;;;;;;;2.47;87.48;99646.00;5071845;28;19942;-54
2022/03/07 03:15:52;;;;;;;;;;;;;;;2.41;87.01;99641.38;5071599;28;19958;-54
2022/03/07 03:18:17;;;;;;;;;;;;;;;2.46;88.66;99643.56;5071138;28;19908;-55
2022/03/07 03:20:43;;;;;;;;;;;;;;;2.38;87.59;99640.84;5071394;28;19908;-53
2022/03/07 03:23:08;;;;;;;;;;;;;;;2.46;87.41;99638.31;5070995;28;20435;-55
2022/03/07 03:25:34;;;;;;;;;;;;;;;2.52;87.41;99640.31;5071094;28;20042;-55
2022/03/07 03:27:59;;;;;;;;;;;;;;;2.44;86.20;99643.72;5071214;28;19915;-54
2022/03/07 03:30:24;;;;;;;;;;;;;;;2.42;87.60;99643.03;5068283;28;19944;-54
2022/03/07 03:32:49;;;;;;;;;;;;;;;2.69;87.06;99641.25;5051356;28;20292;-53
2022/03/07 03:35:15;;;;;;;;;;;;;;;2.73;86.37;99639.97;5050815;28;19917;-53
2022/03/07 03:37:40;;;;;;;;;;;;;;;2.69;85.65;99639.44;5051206;28;19909;-53
2022/03/07 03:40:06;;;;;;;;;;;;;;;2.72;85.81;99636.50;5051037;28;19944;-54
2022/03/07 03:42:31;;;;;;;;;;;;;;;2.61;85.83;99642.03;5050922;28;20007;-54
2022/03/07 03:44:56;;;;;;;;;;;;;;;2.39;88.10;99645.16;5050677;28;20273;-54
2022/03/07 03:47:22;;;;;;;;;;;;;;;2.48;85.98;99641.59;5050911;28;19996;-54
2022/03/07 03:49:47;;;;;;;;;;;;;;;2.76;85.91;99644.91;5050675;28;19968;-53
2022/03/07 03:52:12;;;;;;;;;;;;;;;2.44;87.39;99650.78;5068656;28;20402;-52
2022/03/07 03:54:38;;;;;;;;;;;;;;;2.50;87.83;99645.72;5070950;28;19966;-53
2022/03/07 03:57:03;;;;;;;;;;;;;;;2.83;85.14;99645.09;5071082;28;20315;-56
2022/03/07 03:59:28;;;;;;;;;;;;;;;2.90;84.89;99640.88;5070882;28;20331;-53
2022/03/07 04:01:53;;;;;;;;;;;;;;;2.96;84.48;99642.88;5070895;28;19957;-55
2022/03/07 04:04:19;;;;;;;;;;;;;;;2.97;84.78;99639.28;5071046;28;19984;-55
2022/03/07 04:06:44;;;;;;;;;;;;;;;2.85;85.58;99643.97;5070881;28;20368;-55
2022/03/07 04:09:18;;;;;;;;;;;;;;;3.07;84.05;99641.78;5070886;28;19912;-55
2022/03/07 04:11:44;;;;;;;;;;;;;;;2.96;84.02;99634.97;5071205;28;19955;-55
2022/03/07 04:14:09;;;;;;;;;;;;;;;3.08;83.22;99643.41;5072891;28;20367;-55
2022/03/07 04:16:38;;;;;;;;;;;;;;;3.18;83.26;99636.25;5074939;28;19912;-55
2022/03/07 04:19:04;;;;;;;;;;;;;;;3.18;82.75;99638.03;5074371;28;19908;-55
2022/03/07 04:21:29;;;;;;;;;;;;;;;3.21;86.12;99632.47;5075114;28;19931;-55
2022/03/07 04:23:55;;;;;;;;;;;;;;;3.41;82.51;99639.13;5074707;28;19924;-55
2022/03/07 04:26:20;;;;;;;;;;;;;;;3.50;81.38;99638.16;5075350;28;19909;-56
2022/03/07 04:28:45;;;;;;;;;;;;;;;3.81;79.45;99636.72;5075497;28;19912;-55
2022/03/07 04:31:11;;;;;;;;;;;;;;;3.87;78.55;99629.03;5075478;28;19909;-54
2022/03/07 04:33:36;;;;;;;;;;;;;;;3.91;78.12;99629.53;5075266;28;20454;-55
2022/03/07 04:36:01;;;;;;;;;;;;;;;3.90;77.80;99625.22;5059892;28;19951;-56
2022/03/07 04:38:28;;;;;;;;;;;;;;;4.01;78.29;99619.63;5055232;28;19908;-56
2022/03/07 04:40:53;;;;;;;;;;;;;;;4.17;77.80;99620.63;5055146;28;19962;-56
2022/03/07 04:43:19;;;;;;;;;;;;;;;4.25;77.13;99621.47;5053777;28;19908;-56
2022/03/07 04:45:44;;;;;;;;;;;;;;;4.19;76.88;99613.38;5053356;28;19932;-56
2022/03/07 04:48:09;;;;;;;;;;;;;;;4.02;76.97;99613.41;5053670;28;20406;-56
2022/03/07 04:50:34;;;;;;;;;;;;;;;3.99;77.53;99610.28;5057851;28;19912;-56
2022/03/07 04:53:00;;;;;;;;;;;;;;;3.98;76.90;99611.25;5073025;28;19909;-54
2022/03/07 04:55:25;;;;;;;;;;;;;;;3.87;76.58;99607.97;5072776;28;19908;-55
2022/03/07 04:57:50;;;;;;;;;;;;;;;3.84;76.44;99610.91;5074024;28;19904;-54
2022/03/07 05:00:16;;;;;;;;;;;;;;;4.10;77.00;99613.41;5074032;28;19931;-54
2022/03/07 05:02:42;;;;;;;;;;;;;;;4.15;75.14;99612.91;5073811;28;19904;-54
2022/03/07 05:05:07;;;;;;;;;;;;;;;4.19;75.18;99611.59;5073834;28;19909;-53
2022/03/07 05:07:32;;;;;;;;;;;;;;;3.65;77.78;99608.56;5073455;28;19927;-54
2022/03/07 05:09:58;;;;;;;;;;;;;;;3.70;77.71;99611.56;5073253;28;20407;-54
2022/03/07 05:12:23;;;;;;;;;;;;;;;3.41;78.76;99618.06;5073508;28;19919;-54
2022/03/07 05:14:48;;;;;;;;;;;;;;;3.05;79.62;99618.28;5073618;28;19996;-54
2022/03/07 05:17:14;;;;;;;;;;;;;;;2.76;80.84;99633.56;5073556;28;19908;-55
2022/03/07 05:19:39;;;;;;;;;;;;;;;2.45;82.91;99626.13;5072892;28;19908;-55
2022/03/07 05:22:04;;;;;;;;;;;;;;;3.17;79.27;99620.63;5073067;28;19916;-55
2022/03/07 05:24:29;;;;;;;;;;;;;;;3.50;78.96;99619.75;5072961;28;20010;-43
2022/03/07 05:26:55;;;;;;;;;;;;;;;3.82;76.05;99626.03;5072626;28;19916;-42
2022/03/07 05:29:20;;;;;;;;;;;;;;;3.85;76.70;99623.09;5065481;28;19952;-42
2022/03/07 05:31:45;;;;;;;;;;;;;;;3.41;78.33;99636.50;5016233;28;20321;-42
2022/03/07 05:34:10;;;;;;;;;;;;;;;3.27;78.70;99639.72;5051452;28;19931;-42
2022/03/07 05:36:36;;;;;;;;;;;;;;;2.91;79.68;99640.72;5033642;28;19920;-39
2022/03/07 05:39:01;;;;;;;;;;;;;;;3.21;79.64;99635.91;5033071;28;20336;-40
2022/03/07 05:41:26;;;;;;;;;;;;;;;2.92;80.18;99634.47;5049600;28;19931;-42
2022/03/07 05:43:52;;;;;;;;;;;;;;;2.63;85.28;99636.63;5053064;28;20407;-42
2022/03/07 05:46:17;;;;;;;;;;;;;;;2.67;82.62;99638.78;5053215;28;19908;-42
2022/03/07 05:48:42;;;;;;;;;;;;;;;3.52;79.80;99638.81;5051850;28;19913;-41
2022/03/07 05:51:08;;;;;;;;;;;;;;;3.09;81.20;99635.38;5042047;28;19915;-42
2022/03/07 05:53:33;;;;;;;;;;;;;;;3.33;80.80;99634.66;5070478;28;19931;-42
2022/03/07 05:55:58;;;;;;;;;;;;;;;3.04;82.97;99624.50;5071364;28;20014;-42
2022/03/07 05:58:24;;;;;;;;;;;;;;;2.78;83.86;99627.19;5071152;28;20311;-42
2022/03/07 06:00:49;;;;;;;;;;;;;;;3.68;78.76;99624.88;5071336;28;19987;-42
2022/03/07 06:03:14;;;;;;;;;;;;;;;3.76;77.76;99631.16;5070907;28;19920;-43
2022/03/07 06:05:39;;;;;;;;;;;;;;;3.52;78.32;99633.56;5053216;28;19944;-40
2022/03/07 06:08:05;;;;;;;;;;;;;;;3.79;77.65;99631.66;5071173;28;19916;-42
2022/03/07 06:10:31;;;;;;;;;;;;;;;3.57;77.48;99634.88;5072571;28;19912;-42
2022/03/07 06:12:56;;;;;;;;;;;;;;;3.18;82.56;99644.13;5072847;28;19958;-42
2022/03/07 06:15:21;;;;;;;;;;;;;;;3.36;81.14;99636.13;5072715;28;19908;-42
2022/03/07 06:17:53;;;;;;;;;;;;;;;3.35;79.66;99641.56;5072647;28;19908;-42
2022/03/07 06:20:19;;;;;;;;;;;;;;;3.23;81.51;99641.84;5072343;28;19915;-42
2022/03/07 06:22:44;;;;;;;;;;;;;;;3.40;79.15;99642.72;5074677;28;20010;-42
2022/03/07 06:25:10;;;;;;;;;;;;;;;3.53;80.00;99651.00;5072504;28;20295;-42
2022/03/07 06:27:35;;;;;;;;;;;;;;;3.57;80.32;99650.69;5054364;28;20348;-42
2022/03/07 06:30:00;;;;;;;;;;;;;;;3.91;79.99;99640.88;5072008;28;19912;-42
2022/03/07 06:32:26;;;;;;;;;;;;;;;4.07;79.26;99639.22;5072380;28;19908;-43
2022/03/07 06:34:51;;;;;;;;;;;;;;;4.38;79.47;99641.19;5072447;28;20041;-43
2022/03/07 06:37:17;;;;;;;;;;;;;;;4.31;78.70;99643.69;5071448;28;19916;-42
2022/03/07 06:39:42;;;;;;;;;;;;;;;4.81;77.53;99637.34;5070081;28;19909;-42
2022/03/07 06:42:07;;;;;;;;;;;;;;;4.83;77.16;99631.91;5052215;28;19909;-42
2022/03/07 06:44:33;;;;;;;;;;;;;;;3.89;80.44;99631.50;5052189;28;19909;-41
2022/03/07 06:46:59;;;;;;;;;;;;;;;3.27;83.72;99632.63;5052375;28;19908;-41
2022/03/07 06:49:24;;;;;;;;;;;;;;;2.76;85.53;99641.44;5051672;28;20344;-41
2022/03/07 06:51:49;;;;;;;;;;;;;;;2.79;87.09;99633.25;5066565;28;20387;-41
2022/03/07 06:54:14;;;;;;;;;;;;;;;2.70;87.92;99635.00;5072248;28;19908;-41
2022/03/07 06:56:40;;;;;;;;;;;;;;;2.88;87.80;99637.59;5071992;28;19982;-40
2022/03/07 06:59:05;;;;;;;;;;;;;;;2.74;87.90;99634.56;5071494;28;20002;-41
2022/03/07 07:01:30;;;;;;;;;;;;;;;2.69;87.73;99642.06;5071884;28;19908;-40
2022/03/07 07:03:56;;;;;;;;;;;;;;;2.79;88.32;99643.78;5071879;28;19908;-42
2022/03/07 07:06:21;;;;;;;;;;;;;;;2.83;88.16;99637.22;5071703;28;19908;-41
2022/03/07 07:08:46;;;;;;;;;;;;;;;3.37;85.44;99634.31;5071587;28;19912;-41
2022/03/07 07:11:11;;;;;;;;;;;;;;;2.89;87.64;99634.81;5071645;28;20294;-41
2022/03/07 07:13:37;;;;;;;;;;;;;;;2.84;88.12;99641.50;5071670;28;19908;-41
2022/03/07 07:16:02;;;;;;;;;;;;;;;2.76;88.04;99641.44;5053991;28;19909;-41
2022/03/07 07:18:27;;;;;;;;;;;;;;;2.86;87.90;99650.06;5071938;28;20395;-41
2022/03/07 07:20:53;;;;;;;;;;;;;;;2.84;87.75;99649.41;5071559;28;19915;-41
2022/03/07 07:23:19;;;;;;;;;;;;;;;2.86;87.80;99645.63;5071454;28;19926;-41
2022/03/07 07:25:44;;;;;;;;;;;;;;;2.63;88.89;99653.19;5071545;28;19915;-41
2022/03/07 07:28:09;;;;;;;;;;;;;;;2.73;89.57;99646.03;5071339;28;19908;-41
2022/03/07 07:30:34;;;;;;;;;;;;;;;2.89;89.03;99642.69;5071088;28;20419;-40
2022/03/07 07:33:00;;;;;;;;;;;;;;;3.00;87.60;99636.31;5071381;28;19914;-41
2022/03/07 07:35:25;;;;;;;;;;;;;;;3.07;88.01;99629.44;5071347;28;19992;-41
2022/03/07 07:37:50;;;;;;;;;;;;;;;2.96;87.65;99634.97;5071228;28;19930;-40
2022/03/07 07:40:16;;;;;;;;;;;;;;;3.11;87.30;99627.34;5064264;28;19913;-41
2022/03/07 07:42:41;;;;;;;;;;;;;;;3.06;86.67;99630.41;5050713;28;19908;-41
2022/03/07 07:45:06;;;;;;;;;;;;;;;3.84;84.81;99631.97;5050892;28;19908;-41
2022/03/07 07:47:32;;;;;;;;;;;;;;;3.67;83.92;99622.41;5051165;28;19909;-40
2022/03/07 07:49:57;;;;;;;;;;;;;;;3.61;84.79;99617.78;5050998;28;19912;-40
2022/03/07 07:52:22;;;;;;;;;;;;;;;3.61;84.53;99613.34;5069905;28;19908;-40
2022/03/07 07:54:48;;;;;;;;;;;;;;;3.61;85.40;99617.78;5070965;28;19946;-40
2022/03/07 07:57:14;;;;;;;;;;;;;;;3.73;85.62;99616.47;5052907;28;19908;-39
2022/03/07 07:59:39;;;;;;;;;;;;;;;3.84;84.43;99621.44;5071281;28;20355;-39
2022/03/07 08:02:04;;;;;;;;;;;;;;;3.90;82.41;99614.69;5071129;28;20005;-39
2022/03/07 08:04:29;;;;;;;;;;;;;;;3.92;82.39;99618.84;5070974;28;20252;-39
2022/03/07 08:06:55;;;;;;;;;;;;;;;4.12;82.72;99623.78;5070866;28;19932;-38
2022/03/07 08:09:20;;;;;;;;;;;;;;;3.95;82.44;99630.03;5070780;28;19913;-38
2022/03/07 08:11:45;;;;;;;;;;;;;;;4.34;81.97;99626.72;5070937;28;19912;-40
2022/03/07 08:14:11;;;;;;;;;;;;;;;4.43;81.46;99631.00;5070701;28;20399;-39
2022/03/07 08:16:36;;;;;;;;;;;;;;;4.54;81.69;99624.56;5070961;28;19915;-39
2022/03/07 08:19:01;;;;;;;;;;;;;;;4.56;79.86;99625.22;5070667;28;19998;-39
2022/03/07 08:21:26;;;;;;;;;;;;;;;4.50;80.97;99595.91;5071044;28;19991;-38
2022/03/07 08:23:53;;;;;;;;;;;;;;;4.62;80.34;99624.53;5070432;28;20354;-37
2022/03/07 08:26:18;;;;;;;;;;;;;;;4.85;78.19;99625.47;5070983;28;19915;-37
2022/03/07 08:28:43;;;;;;;;;;;;;;;4.79;77.05;99628.78;5070592;28;19916;-38
2022/03/07 08:31:08;;;;;;;;;;;;;;;4.70;78.67;99619.25;5069824;28;20356;-38
2022/03/07 08:33:34;;;;;;;;;;;;;;;4.61;79.62;99625.56;5068609;28;19950;-38
2022/03/07 08:35:59;;;;;;;;;;;;;;;4.80;77.77;99624.34;5054952;28;19916;-38
2022/03/07 08:38:24;;;;;;;;;;;;;;;4.96;76.76;99626.94;5050350;28;19908;-38
2022/03/07 08:40:50;;;;;;;;;;;;;;;5.09;76.77;99629.84;5050382;28;19915;-39
2022/03/07 08:43:15;;;;;;;;;;;;;;;4.80;78.03;99627.81;5050979;28;19913;-39
2022/03/07 08:45:40;;;;;;;;;;;;;;;5.06;76.11;99632.84;5050855;28;20330;-39
2022/03/07 08:48:05;;;;;;;;;;;;;;;4.86;76.42;99631.59;5050340;28;19996;-37
2022/03/07 08:50:31;;;;;;;;;;;;;;;4.44;77.38;99632.66;5054079;28;20472;-38
2022/03/07 08:52:56;;;;;;;;;;;;;;;4.71;78.19;99628.81;5070310;28;20026;-38
2022/03/07 08:55:40;;;;;;;;;;;;;;;4.51;76.37;99630.97;5070760;28;19962;-37
2022/03/07 08:58:05;;;;;;;;;;;;;;;4.39;77.74;99624.41;5070223;28;19908;-39
2022/03/07 09:00:31;;;;;;;;;;;;;;;4.61;78.15;99625.56;5072467;28;20456;-38
2022/03/07 09:02:56;;;;;;;;;;;;;;;4.21;78.06;99622.78;5074018;28;19931;-38
2022/03/07 09:05:21;;;;;;;;;;;;;;;4.62;76.73;99620.09;5073611;28;19908;-38
2022/03/07 09:07:46;;;;;;;;;;;;;;;4.97;75.26;99615.41;5074343;28;20032;-38
2022/03/07 09:10:12;;;;;;;;;;;;;;;4.94;75.68;99628.09;5073893;28;19912;-38
2022/03/07 09:12:37;;;;;;;;;;;;;;;4.85;76.87;99620.19;5073630;28;19912;-38
2022/03/07 09:15:03;;;;;;;;;;;;;;;5.01;75.99;99621.16;5073694;28;19912;-38
2022/03/07 09:17:28;;;;;;;;;;;;;;;4.55;76.88;99624.41;5073837;28;19915;-38
2022/03/07 09:19:56;;;;;;;;;;;;;;;4.82;76.38;99617.91;5073503;28;19908;-37
2022/03/07 09:22:40;;;;;;;;;;;;;;;4.73;77.13;99618.09;5073858;28;19927;-38
2022/03/07 09:25:24;;;;;;;;;;;;;;;4.74;76.89;99622.38;5073587;28;19927;-39
2022/03/07 09:27:50;;;;;;;;;;;;;;;4.63;77.95;99624.38;5073506;28;20025;-38
2022/03/07 09:30:16;;;;;;;;;;;;;;;4.54;79.82;99622.75;5073513;28;19924;-38
2022/03/07 09:32:41;;;;;;;;;;;;;;;4.68;78.90;99624.72;5073544;28;19914;-39
2022/03/07 09:35:07;;;;;;;;;;;;;;;4.73;79.63;99626.84;5055640;28;20012;-37
2022/03/07 09:37:32;;;;;;;;;;;;;;;5.01;77.89;99621.97;5073319;28;19994;-38
2022/03/07 09:39:58;;;;;;;;;;;;;;;5.06;77.49;99619.66;5069025;28;19908;-38
2022/03/07 09:42:23;;;;;;;;;;;;;;;5.24;76.18;99610.69;5053378;28;19908;-39
2022/03/07 09:44:48;;;;;;;;;;;;;;;5.06;77.05;99614.38;5053081;28;19909;-38
2022/03/07 09:47:14;;;;;;;;;;;;;;;5.01;77.18;99613.25;5053699;28;19966;-38
2022/03/07 09:49:39;;;;;;;;;;;;;;;5.04;76.64;99610.25;5052622;28;20292;-38
2022/03/07 09:52:04;;;;;;;;;;;;;;;5.08;76.96;99612.41;5069388;28;19908;-38
2022/03/07 09:54:30;;;;;;;;;;;;;;;5.28;76.51;99614.63;5073061;28;20363;-38
2022/03/07 09:56:55;;;;;;;;;;;;;;;5.27;76.31;99612.97;5072697;28;19943;-38
2022/03/07 09:59:20;;;;;;;;;;;;;;;5.46;76.13;99604.63;5072975;28;20398;-38
2022/03/07 10:01:46;;;;;;;;;;;;;;;5.64;72.52;99607.00;5072522;28;19966;-39
2022/03/07 10:04:12;;;;;;;;;;;;;;;5.74;71.91;99603.31;5072969;28;20267;-38
2022/03/07 10:06:37;;;;;;;;;;;;;;;5.74;71.51;99605.94;5072522;28;20388;-39
2022/03/07 10:09:03;;;;;;;;;;;;;;;5.68;72.58;99602.19;5072469;28;20372;-40
2022/03/07 10:11:29;;;;;;;;;;;;;;;5.46;73.69;99606.44;5071549;28;19920;-39
2022/03/07 10:13:54;;;;;;;;;;;;;;;5.38;75.38;99609.94;5073007;28;20338;-40
2022/03/07 10:16:20;;;;;;;;;;;;;;;5.60;75.68;99607.53;5072935;28;19909;-39
2022/03/07 10:18:52;;;;;;;;;;;;;;;5.54;75.87;99613.47;5072716;28;19998;-39
2022/03/07 10:21:21;;;;;;;;;;;;;;;5.47;75.83;99605.44;5072422;28;19985;-39
2022/03/07 10:23:50;;;;;;;;;;;;;;;5.25;77.19;99607.88;5072323;28;20004;-39
2022/03/07 10:26:15;;;;;;;;;;;;;;;5.35;77.33;99607.66;5072302;28;19912;-38
2022/03/07 10:28:41;;;;;;;;;;;;;;;5.38;75.69;99602.00;5072048;28;19945;-39
2022/03/07 10:31:16;;;;;;;;;;;;;;;5.21;76.26;99603.91;5072494;28;19908;-39
2022/03/07 10:33:41;;;;;;;;;;;;;;;4.98;77.36;99595.94;5072263;28;19908;-39
2022/03/07 10:36:06;;;;;;;;;;;;;;;5.16;78.13;99593.06;5071733;28;19908;-39
2022/03/07 10:38:32;;;;;;;;;;;;;;;5.20;77.08;99590.91;5072325;28;19995;-38
2022/03/07 10:40:57;;;;;;;;;;;;;;;5.22;76.74;99594.19;5059303;28;19909;-39
2022/03/07 10:43:23;;;;;;;;;;;;;;;5.26;77.07;99582.31;5052178;28;20424;-38
2022/03/07 10:45:49;;;;;;;;;;;;;;;5.38;75.09;99588.81;5052125;28;19908;-39
2022/03/07 10:48:14;;;;;;;;;;;;;;;5.33;76.84;99587.69;5051917;28;19909;-37
2022/03/07 10:50:42;;;;;;;;;;;;;;;5.36;76.50;99585.53;5056911;28;20304;-38
2022/03/07 10:53:07;;;;;;;;;;;;;;;5.17;76.14;99584.16;5054105;28;19908;-38
2022/03/07 10:55:33;;;;;;;;;;;;;;;5.36;76.64;99577.63;5071830;28;19908;-37
2022/03/07 10:58:05;;;;;;;;;;;;;;;5.45;76.16;99576.59;5071447;28;19908;-38
2022/03/07 11:00:30;;;;;;;;;;;;;;;5.54;76.41;99569.44;5070871;28;19909;-38
2022/03/07 11:02:56;;;;;;;;;;;;;;;5.47;75.03;99564.03;5071352;28;20334;-38
2022/03/07 11:05:21;;;;;;;;;;;;;;;5.59;75.45;99561.00;5071335;28;19974;-38
2022/03/07 11:07:47;;;;;;;;;;;;;;;5.68;74.85;99563.41;5053734;28;19958;-38
2022/03/07 11:10:12;;;;;;;;;;;;;;;5.71;75.76;99559.56;5071239;28;20277;-38
2022/03/07 11:12:38;;;;;;;;;;;;;;;5.60;76.44;99557.38;5071294;28;19908;-39
2022/03/07 11:15:08;;;;;;;;;;;;;;;5.61;76.18;99553.72;5070533;28;19912;-39
2022/03/07 11:17:37;;;;;;;;;;;;;;;5.70;73.61;99550.03;5071397;28;19912;-39
2022/03/07 11:20:03;;;;;;;;;;;;;;;5.69;74.33;99553.66;5070966;28;19985;-38
2022/03/07 11:22:28;;;;;;;;;;;;;;;5.71;74.66;99551.66;5070550;28;20348;-39
2022/03/07 11:24:53;;;;;;;;;;;;;;;5.78;74.53;99549.94;5070984;28;20380;-38
2022/03/07 11:27:18;;;;;;;;;;;;;;;5.73;74.12;99547.03;5070894;28;19908;-38
2022/03/07 11:29:44;;;;;;;;;;;;;;;5.73;74.66;99547.03;5070985;28;20414;-39
2022/03/07 11:32:10;;;;;;;;;;;;;;;5.73;74.80;99535.63;5071203;28;19912;-38
2022/03/07 11:34:35;;;;;;;;;;;;;;;5.75;75.14;99537.13;5070858;28;19958;-38
2022/03/07 11:37:00;;;;;;;;;;;;;;;6.00;74.94;99534.31;5070569;28;19909;-39
2022/03/07 11:39:32;;;;;;;;;;;;;;;6.05;73.88;99524.00;5070661;28;19912;-39
2022/03/07 11:42:08;;;;;;;;;;;;;;;6.23;73.31;99518.41;5071198;28;19963;-39
2022/03/07 11:44:33;;;;;;;;;;;;;;;6.12;72.64;99514.38;5071132;28;19908;-38
2022/03/07 11:47:06;;;;;;;;;;;;;;;6.01;73.57;99512.16;5053164;28;20054;-39
2022/03/07 11:49:31;;;;;;;;;;;;;;;5.96;73.95;99515.34;5070945;28;19912;-38
2022/03/07 11:51:57;;;;;;;;;;;;;;;6.01;73.19;99520.09;5055044;28;19916;-38
2022/03/07 11:54:23;;;;;;;;;;;;;;;5.90;73.98;99513.38;5050989;28;19908;-39
2022/03/07 11:56:48;;;;;;;;;;;;;;;6.16;69.75;99512.19;5050834;28;19928;-39
2022/03/07 11:59:13;;;;;;;;;;;;;;;6.24;70.92;99512.09;5050841;28;19912;-39
2022/03/07 12:01:39;;;;;;;;;;;;;;;6.22;71.37;99511.47;5051098;28;19948;-39
2022/03/07 12:04:07;;;;;;;;;;;;;;;6.34;71.49;99507.38;5051040;28;20377;-39
2022/03/07 12:06:39;;;;;;;;;;;;;;;6.13;71.61;99508.09;5050650;28;19963;-39
2022/03/07 12:09:04;;;;;;;;;;;;;;;6.08;72.58;99502.53;5050730;28;19912;-39
2022/03/07 12:11:31;;;;;;;;;;;;;;;6.40;70.90;99503.19;5050639;28;19990;-39
2022/03/07 12:14:02;;;;;;;;;;;;;;;6.51;69.66;99489.53;5050764;28;19931;-39
2022/03/07 12:16:37;;;;;;;;;;;;;;;6.39;70.49;99494.41;5050851;28;19915;-38
2022/03/07 12:19:08;;;;;;;;;;;;;;;6.45;70.64;99484.94;5050356;28;19967;-39
2022/03/07 12:21:34;;;;;;;;;;;;;;;6.50;70.48;99494.97;5050550;28;19916;-39
2022/03/07 12:23:59;;;;;;;;;;;;;;;6.41;70.04;99495.06;5049891;28;19921;-39
2022/03/07 12:26:25;;;;;;;;;;;;;;;6.45;68.10;99483.13;5050189;28;19978;-37
2022/03/07 12:28:50;;;;;;;;;;;;;;;6.75;68.53;99477.81;5049975;28;19916;-38
2022/03/07 12:31:15;;;;;;;;;;;;;;;6.72;67.18;99480.84;5050057;28;20074;-39
2022/03/07 12:33:41;;;;;;;;;;;;;;;6.73;67.01;99481.66;5050044;28;20292;-39
2022/03/07 12:36:12;;;;;;;;;;;;;;;6.76;67.50;99479.47;5053025;28;19908;-39
2022/03/07 12:38:44;;;;;;;;;;;;;;;6.35;67.50;99477.28;5053453;28;19909;-38
2022/03/07 12:41:09;;;;;;;;;;;;;;;6.32;69.00;99482.13;5053512;28;19908;-38
2022/03/07 12:43:34;;;;;;;;;;;;;;;6.50;69.08;99479.94;5053974;28;19924;-38
2022/03/07 12:46:00;;;;;;;;;;;;;;;6.69;67.59;99478.56;5050895;28;19915;-38
2022/03/07 12:48:35;;;;;;;;;;;;;;;6.81;65.74;99466.47;5035773;28;19922;-38
2022/03/07 12:51:10;;;;;;;;;;;;;;;6.56;66.80;99475.75;5052938;28;19916;-38